createdAt,value
2019-01-24T00:00:54.334Z,60.95
2019-01-24T00:03:22.614Z,79.30
2019-01-24T00:05:50.873Z,81.50
2019-01-24T00:08:19.168Z,78.97
2019-01-24T00:10:47.423Z,78.07
2019-01-24T00:13:15.687Z,72.00
2019-01-24T00:15:43.956Z,85.13
2019-01-24T00:18:12.296Z,77.40
2019-01-24T00:20:40.579Z,74.23
2019-01-24T00:23:08.846Z,64.40
2019-01-24T00:25:37.151Z,79.50
2019-01-24T00:28:05.411Z,74.82
2019-01-24T00:30:33.682Z,63.08
2019-01-24T00:33:01.951Z,66.27
2019-01-24T00:35:30.215Z,75.03
2019-01-24T00:37:58.487Z,60.90
2019-01-24T00:40:26.742Z,62.87
2019-01-24T00:42:55.009Z,63.57
2019-01-24T00:45:23.359Z,66.53
2019-01-24T00:47:51.663Z,62.00
2019-01-24T00:50:19.923Z,68.03
2019-01-24T00:52:48.193Z,58.30
2019-01-24T00:55:49.713Z,69.97
2019-01-24T00:58:17.993Z,61.02
2019-01-24T01:00:46.279Z,57.80
2019-01-24T01:03:14.545Z,60.48
2019-01-24T01:05:42.828Z,55.60
2019-01-24T01:08:11.096Z,63.35
2019-01-24T01:10:39.351Z,60.52
2019-01-24T01:13:07.611Z,57.67
2019-01-24T01:15:35.878Z,59.60
2019-01-24T01:21:12.277Z,53.83
2019-01-24T01:23:40.546Z,55.50
2019-01-24T01:26:08.818Z,58.23
2019-01-24T01:28:37.083Z,57.08
2019-01-24T01:31:05.433Z,50.50
2019-01-24T01:33:33.699Z,52.57
2019-01-24T01:36:01.962Z,54.90
2019-01-24T01:38:30.216Z,53.50
2019-01-24T01:40:58.488Z,58.60
2019-01-24T01:43:26.827Z,56.28
2019-01-24T01:45:55.091Z,50.93
2019-01-24T01:48:42.706Z,50.67
2019-01-24T01:51:10.954Z,53.63
2019-01-24T01:53:39.221Z,44.38
2019-01-24T01:56:07.474Z,50.00
2019-01-24T01:58:35.737Z,47.63
2019-01-24T02:04:12.069Z,51.95
2019-01-24T02:06:40.338Z,51.17
2019-01-24T02:09:42.737Z,57.53
2019-01-24T02:12:10.997Z,51.03
2019-01-24T02:14:39.264Z,45.63
2019-01-24T02:17:07.530Z,48.38
2019-01-24T02:19:35.811Z,44.35
2019-01-24T02:25:45.760Z,40.43
2019-01-24T02:28:14.027Z,40.13
2019-01-24T02:30:42.304Z,45.17
2019-01-24T02:33:10.568Z,49.60
2019-01-24T02:35:38.819Z,43.37
2019-01-24T02:38:07.085Z,54.83
2019-01-24T02:40:35.355Z,44.50
2019-01-24T02:43:03.621Z,47.20
2019-01-24T02:45:31.893Z,48.83
2019-01-24T02:48:00.154Z,46.17
2019-01-24T02:50:28.415Z,50.10
2019-01-24T02:52:56.678Z,55.37
2019-01-24T02:55:24.944Z,49.53
2019-01-24T02:57:53.216Z,55.53
2019-01-24T03:00:40.821Z,55.20
2019-01-24T03:03:09.103Z,48.57
2019-01-24T03:05:37.390Z,52.90
2019-01-24T03:08:05.643Z,45.90
2019-01-24T03:10:33.916Z,50.43
2019-01-24T03:13:02.185Z,54.70
2019-01-24T03:15:30.464Z,46.20
2019-01-24T03:17:58.730Z,49.87
2019-01-24T03:20:27.000Z,46.33
2019-01-24T03:22:55.311Z,56.20
2019-01-24T03:25:23.563Z,50.67
2019-01-24T03:27:51.835Z,51.92
2019-01-24T03:30:39.440Z,47.70
2019-01-24T03:33:07.706Z,37.10
2019-01-24T03:35:35.954Z,48.10
2019-01-24T03:38:04.215Z,49.90
2019-01-24T03:40:32.468Z,45.70
2019-01-24T03:43:00.741Z,47.87
2019-01-24T03:45:28.994Z,47.63
2019-01-24T03:47:57.283Z,44.57
2019-01-24T03:50:25.546Z,41.03
2019-01-24T03:53:33.839Z,46.53
2019-01-24T03:56:02.096Z,42.10
2019-01-24T03:58:30.365Z,51.63
2019-01-24T04:00:58.638Z,48.33
2019-01-24T04:03:26.905Z,39.80
2019-01-24T04:05:55.172Z,44.17
2019-01-24T04:08:23.441Z,45.97
2019-01-24T04:10:51.693Z,41.87
2019-01-24T04:13:19.974Z,39.78
2019-01-24T04:15:48.260Z,48.23
2019-01-24T04:18:16.522Z,35.63
2019-01-24T04:20:44.790Z,41.27
2019-01-24T04:23:13.062Z,40.47
2019-01-24T04:25:41.357Z,47.57
2019-01-24T04:28:09.646Z,38.70
2019-01-24T04:30:37.895Z,41.77
2019-01-24T04:33:06.158Z,39.58
2019-01-24T04:35:34.435Z,43.10
2019-01-24T04:38:02.725Z,42.07
2019-01-24T04:40:31.008Z,44.07
2019-01-24T04:42:59.276Z,41.60
2019-01-24T04:45:27.550Z,36.90
2019-01-24T04:47:55.915Z,45.20
2019-01-24T04:50:24.178Z,43.63
2019-01-24T04:52:52.446Z,44.40
2019-01-24T04:55:20.718Z,46.10
2019-01-24T04:58:22.332Z,48.38
2019-01-24T05:00:50.594Z,42.33
2019-01-24T05:03:18.865Z,40.70
2019-01-24T05:05:47.146Z,45.33
2019-01-24T05:08:15.408Z,37.60
2019-01-24T05:10:43.685Z,40.90
2019-01-24T05:13:11.955Z,46.20
2019-01-24T05:15:40.241Z,39.30
2019-01-24T05:18:08.515Z,43.33
2019-01-24T05:20:36.778Z,48.00
2019-01-24T05:23:05.042Z,41.00
2019-01-24T05:25:33.313Z,44.43
2019-01-24T05:28:01.570Z,45.33
2019-01-24T05:30:29.910Z,36.77
2019-01-24T05:32:58.225Z,46.60
2019-01-24T05:35:26.486Z,47.17
2019-01-24T05:37:54.761Z,37.47
2019-01-24T05:40:23.114Z,42.00
2019-01-24T05:42:51.361Z,44.30
2019-01-24T05:45:19.657Z,45.50
2019-01-24T05:47:47.984Z,50.53
2019-01-24T05:50:16.270Z,41.37
2019-01-24T05:52:44.611Z,48.65
2019-01-24T05:55:46.267Z,50.07
2019-01-24T05:58:14.538Z,47.10
2019-01-24T06:03:31.763Z,44.30
2019-01-24T06:06:00.036Z,44.60
2019-01-24T06:08:28.410Z,42.05
2019-01-24T06:10:56.692Z,51.60
2019-01-24T06:13:24.953Z,48.73
2019-01-24T06:15:53.218Z,41.67
2019-01-24T06:18:21.484Z,51.03
2019-01-24T06:20:49.769Z,49.23
2019-01-24T06:23:18.043Z,42.65
2019-01-24T06:25:46.322Z,47.33
2019-01-24T06:28:14.586Z,43.17
2019-01-24T06:30:42.851Z,49.87
2019-01-24T06:33:11.137Z,42.70
2019-01-24T06:35:39.420Z,50.12
2019-01-24T06:38:07.689Z,47.83
2019-01-24T06:40:36.013Z,46.07
2019-01-24T06:43:04.283Z,47.43
2019-01-24T06:45:32.555Z,45.00
2019-01-24T06:48:00.820Z,51.33
2019-01-24T06:50:29.085Z,44.00
2019-01-24T06:52:57.358Z,45.17
2019-01-24T06:55:59.221Z,49.40
2019-01-24T06:58:27.501Z,49.50
2019-01-24T07:00:55.842Z,47.55
2019-01-24T07:03:24.117Z,42.10
2019-01-24T07:05:55.478Z,44.73
2019-01-24T07:08:22.389Z,51.25
2019-01-24T07:10:50.671Z,44.80
2019-01-24T07:13:18.947Z,47.73
2019-01-24T07:15:47.232Z,49.67
2019-01-24T07:18:15.505Z,47.90
2019-01-24T07:20:55.989Z,44.30
2019-01-24T07:23:24.254Z,47.43
2019-01-24T07:25:52.526Z,42.20
2019-01-24T07:28:20.871Z,54.90
2019-01-24T07:30:49.137Z,45.83
2019-01-24T07:33:17.410Z,36.48
2019-01-24T07:35:45.676Z,48.20
2019-01-24T07:38:13.951Z,41.00
2019-01-24T07:40:42.216Z,41.50
2019-01-24T07:43:10.495Z,43.50
2019-01-24T07:46:18.801Z,44.20
2019-01-24T07:48:47.083Z,46.65
2019-01-24T07:51:15.350Z,42.80
2019-01-24T07:53:43.623Z,42.65
2019-01-24T07:56:11.896Z,42.40
2019-01-24T07:58:40.185Z,42.40
2019-01-24T08:01:08.458Z,45.55
2019-01-24T08:03:36.743Z,41.65
2019-01-24T08:06:08.996Z,43.63
2019-01-24T08:08:35.161Z,45.13
2019-01-24T08:11:03.416Z,45.10
2019-01-24T08:13:31.675Z,49.23
2019-01-24T08:15:59.951Z,43.35
2019-01-24T08:18:28.722Z,46.23
2019-01-24T08:20:56.989Z,45.12
2019-01-24T08:23:25.271Z,40.75
2019-01-24T08:25:53.538Z,47.30
2019-01-24T08:28:21.815Z,44.23
2019-01-24T08:30:50.083Z,44.35
2019-01-24T08:33:18.344Z,39.58
2019-01-24T08:35:46.614Z,48.78
2019-01-24T08:38:14.877Z,41.37
2019-01-24T08:40:43.162Z,43.77
2019-01-24T08:43:11.428Z,39.83
2019-01-24T08:45:39.694Z,41.37
2019-01-24T08:48:07.967Z,37.23
2019-01-24T08:50:36.238Z,42.33
2019-01-24T08:53:04.580Z,44.10
2019-01-24T08:55:52.188Z,48.87
2019-01-24T08:58:20.468Z,43.80
2019-01-24T09:00:48.731Z,52.63
2019-01-24T09:03:36.329Z,45.53
2019-01-24T09:06:38.658Z,41.03
2019-01-24T09:09:40.849Z,46.40
2019-01-24T09:12:09.133Z,42.80
2019-01-24T09:14:56.744Z,48.37
2019-01-24T09:17:25.035Z,43.07
2019-01-24T09:19:53.310Z,49.43
2019-01-24T09:22:21.576Z,51.60
2019-01-24T09:24:49.852Z,51.02
2019-01-24T09:27:18.123Z,51.30
2019-01-24T09:29:46.390Z,41.37
2019-01-24T09:32:14.649Z,43.03
2019-01-24T09:34:42.930Z,40.23
2019-01-24T09:37:11.196Z,45.80
2019-01-24T09:39:39.459Z,45.52
2019-01-24T09:42:07.728Z,45.07
2019-01-24T09:44:35.983Z,43.70
2019-01-24T09:47:04.265Z,41.17
2019-01-24T09:49:32.543Z,47.80
2019-01-24T09:52:00.797Z,53.27
2019-01-24T09:54:29.073Z,43.80
2019-01-24T09:56:57.345Z,39.18
2019-01-24T09:59:25.628Z,41.57
2019-01-24T10:01:53.904Z,48.43
2019-01-24T10:04:22.168Z,45.67
2019-01-24T10:06:50.663Z,37.83
2019-01-24T10:09:18.981Z,47.95
2019-01-24T10:11:47.248Z,42.67
2019-01-24T10:14:15.524Z,49.60
2019-01-24T10:16:43.783Z,46.13
2019-01-24T10:19:12.048Z,48.37
2019-01-24T10:21:40.321Z,53.83
2019-01-24T10:24:08.599Z,43.60
2019-01-24T10:26:36.856Z,45.10
2019-01-24T10:29:05.139Z,44.75
2019-01-24T10:31:33.476Z,49.23
2019-01-24T10:34:01.774Z,37.97
2019-01-24T10:36:30.038Z,52.62
2019-01-24T10:38:58.314Z,40.20
2019-01-24T10:41:26.591Z,43.27
2019-01-24T10:43:54.856Z,41.70
2019-01-24T10:46:23.127Z,43.90
2019-01-24T10:48:51.381Z,43.20
2019-01-24T10:51:19.644Z,40.30
2019-01-24T10:53:47.915Z,47.96
2019-01-24T10:56:16.182Z,42.15
2019-01-24T10:58:44.439Z,44.10
2019-01-24T11:01:12.740Z,41.80
2019-01-24T11:03:41.025Z,45.43
2019-01-24T11:06:09.287Z,40.83
2019-01-24T11:08:37.558Z,45.60
2019-01-24T11:11:05.825Z,49.30
2019-01-24T11:13:34.095Z,48.20
2019-01-24T11:16:21.711Z,49.07
2019-01-24T11:18:49.987Z,45.40
2019-01-24T11:21:18.255Z,49.07
2019-01-24T11:23:46.581Z,47.60
2019-01-24T11:26:14.846Z,51.43
2019-01-24T11:28:43.122Z,43.90
2019-01-24T11:31:11.415Z,49.37
2019-01-24T11:33:40.432Z,45.58
2019-01-24T11:36:08.698Z,45.50
2019-01-24T11:38:36.953Z,46.10
2019-01-24T11:41:05.228Z,44.97
2019-01-24T11:43:33.494Z,45.70
2019-01-24T11:46:01.784Z,44.18
2019-01-24T11:48:30.057Z,39.30
2019-01-24T11:50:58.329Z,46.33
2019-01-24T11:53:26.596Z,43.93
2019-01-24T11:55:54.871Z,47.30
2019-01-24T11:58:23.123Z,50.85
2019-01-24T12:03:30.345Z,48.70
2019-01-24T12:05:58.602Z,45.20
2019-01-24T12:08:26.877Z,50.48
2019-01-24T12:10:55.178Z,41.33
2019-01-24T12:13:23.436Z,47.80
2019-01-24T12:15:51.689Z,41.33
2019-01-24T12:18:19.956Z,43.92
2019-01-24T12:20:48.213Z,41.40
2019-01-24T12:23:16.475Z,41.93
2019-01-24T12:25:44.752Z,52.23
2019-01-24T12:28:13.023Z,40.57
2019-01-24T12:30:41.297Z,45.23
2019-01-24T12:33:09.556Z,44.13
2019-01-24T12:35:37.822Z,50.00
2019-01-24T12:38:06.089Z,46.13
2019-01-24T12:40:34.354Z,45.23
2019-01-24T12:43:02.621Z,47.03
2019-01-24T12:46:10.905Z,50.90
2019-01-24T12:48:39.176Z,43.70
2019-01-24T12:51:07.455Z,43.73
2019-01-24T12:53:35.729Z,48.90
2019-01-24T12:56:03.992Z,47.43
2019-01-24T12:58:32.254Z,45.47
2019-01-24T13:01:00.531Z,44.33
2019-01-24T13:03:28.800Z,43.13
2019-01-24T13:05:57.100Z,49.70
2019-01-24T13:08:25.363Z,43.92
2019-01-24T13:10:53.646Z,42.85
2019-01-24T13:13:21.925Z,43.93
2019-01-24T13:15:50.199Z,37.67
2019-01-24T13:18:18.477Z,42.53
2019-01-24T13:20:46.736Z,46.70
2019-01-24T13:23:15.027Z,46.73
2019-01-24T13:28:51.352Z,54.80
2019-01-24T13:31:19.638Z,45.90
2019-01-24T13:33:47.922Z,40.20
2019-01-24T13:36:16.181Z,46.05
2019-01-24T13:38:44.448Z,46.00
2019-01-24T13:41:12.716Z,50.90
2019-01-24T13:43:41.563Z,41.83
2019-01-24T13:46:09.831Z,46.90
2019-01-24T13:48:38.115Z,47.30
2019-01-24T13:51:06.378Z,46.10
2019-01-24T13:53:34.662Z,40.47
2019-01-24T13:56:02.929Z,49.43
2019-01-24T13:58:31.189Z,44.77
2019-01-24T14:00:59.464Z,50.28
2019-01-24T14:03:27.886Z,43.65
2019-01-24T14:05:56.162Z,43.00
2019-01-24T14:08:24.432Z,48.10
2019-01-24T14:10:52.698Z,42.20
2019-01-24T14:13:20.992Z,46.28
2019-01-24T14:15:49.251Z,40.88
2019-01-24T14:18:17.511Z,43.83
2019-01-24T14:20:45.771Z,39.93
2019-01-24T14:23:14.039Z,46.57
2019-01-24T14:25:42.304Z,41.92
2019-01-24T14:28:10.568Z,52.23
2019-01-24T14:30:38.833Z,44.40
2019-01-24T14:33:07.093Z,39.83
2019-01-24T14:35:35.358Z,46.83
2019-01-24T14:38:03.702Z,43.37
2019-01-24T14:40:31.966Z,44.27
2019-01-24T14:43:00.231Z,44.73
2019-01-24T14:45:28.567Z,44.20
2019-01-24T14:47:56.839Z,44.03
2019-01-24T14:51:05.151Z,50.38
2019-01-24T14:53:33.419Z,44.15
2019-01-24T14:56:01.688Z,43.37
2019-01-24T14:58:29.951Z,41.07
2019-01-24T15:01:38.259Z,43.27
2019-01-24T15:04:06.518Z,33.90
2019-01-24T15:06:34.792Z,43.50
2019-01-24T15:11:42.018Z,39.53
2019-01-24T15:14:10.279Z,42.93
2019-01-24T15:16:38.574Z,40.92
2019-01-24T15:19:06.837Z,40.30
2019-01-24T15:21:35.987Z,40.83
2019-01-24T15:24:05.164Z,41.03
2019-01-24T15:26:52.771Z,42.27
2019-01-24T15:29:21.037Z,44.00
2019-01-24T15:31:49.317Z,39.33
2019-01-24T15:34:17.583Z,36.00
2019-01-24T15:36:45.840Z,38.30
2019-01-24T15:39:14.106Z,40.07
2019-01-24T15:41:42.366Z,35.83
2019-01-24T15:44:10.634Z,38.02
2019-01-24T15:46:38.903Z,36.77
2019-01-24T15:49:07.187Z,40.52
2019-01-24T15:51:35.430Z,36.17
2019-01-24T15:57:05.259Z,38.20
2019-01-24T15:59:33.530Z,36.20
2019-01-24T16:02:01.796Z,40.52
2019-01-24T16:04:30.071Z,45.73
2019-01-24T16:06:58.341Z,35.10
2019-01-24T16:09:26.611Z,39.00
2019-01-24T16:11:54.884Z,41.93
2019-01-24T16:14:23.150Z,39.20
2019-01-24T16:16:51.420Z,39.20
2019-01-24T16:19:19.705Z,39.08
2019-01-24T16:21:47.956Z,37.53
2019-01-24T16:24:16.249Z,39.80
2019-01-24T16:26:44.518Z,36.10
2019-01-24T16:29:12.780Z,37.83
2019-01-24T16:31:41.043Z,38.57
2019-01-24T16:34:09.298Z,38.37
2019-01-24T16:36:37.562Z,33.47
2019-01-24T16:39:39.183Z,38.40
2019-01-24T16:42:07.443Z,36.27
2019-01-24T16:44:35.705Z,32.77
2019-01-24T16:47:04.037Z,39.20
2019-01-24T16:49:32.294Z,35.33
2019-01-24T16:52:00.575Z,33.88
2019-01-24T16:54:28.853Z,31.30
2019-01-24T16:56:57.156Z,38.50
2019-01-24T16:59:25.428Z,34.87
2019-01-24T17:01:53.681Z,32.17
2019-01-24T17:04:21.946Z,40.07
2019-01-24T17:06:50.216Z,41.03
2019-01-24T17:09:18.473Z,36.88
2019-01-24T17:11:46.748Z,38.10
2019-01-24T17:14:15.005Z,40.70
2019-01-24T17:16:43.276Z,37.60
2019-01-24T17:19:11.549Z,37.80
2019-01-24T17:21:39.813Z,37.73
2019-01-24T17:24:08.086Z,34.10
2019-01-24T17:26:36.363Z,38.92
2019-01-24T17:29:44.670Z,37.80
2019-01-24T17:32:12.955Z,37.27
2019-01-24T17:34:41.211Z,31.80
2019-01-24T17:37:09.478Z,32.60
2019-01-24T17:39:37.734Z,32.33
2019-01-24T17:42:06.036Z,36.53
2019-01-24T17:44:34.299Z,38.57
2019-01-24T17:47:02.555Z,35.48
2019-01-24T17:49:30.852Z,39.85
2019-01-24T17:51:59.136Z,43.28
2019-01-24T17:54:27.414Z,38.30
2019-01-24T17:56:55.697Z,35.20
2019-01-24T17:59:23.979Z,34.90
2019-01-24T18:01:52.272Z,36.53
2019-01-24T18:04:21.779Z,38.83
2019-01-24T18:06:50.559Z,34.17
2019-01-24T18:09:18.818Z,39.37
2019-01-24T18:11:48.236Z,44.27
2019-01-24T18:14:17.105Z,36.93
2019-01-24T18:16:45.391Z,40.20
2019-01-24T18:19:13.658Z,38.87
2019-01-24T18:21:41.930Z,37.83
2019-01-24T18:24:10.198Z,40.47
2019-01-24T18:26:38.482Z,35.63
2019-01-24T18:29:06.820Z,32.77
2019-01-24T18:31:35.102Z,32.33
2019-01-24T18:34:03.380Z,34.53
2019-01-24T18:36:31.650Z,31.27
2019-01-24T18:38:59.922Z,30.43
2019-01-24T18:41:28.180Z,29.17
2019-01-24T18:43:56.466Z,31.43
2019-01-24T18:46:43.842Z,31.60
2019-01-24T18:49:12.136Z,32.15
2019-01-24T18:51:40.403Z,31.50
2019-01-24T18:54:08.999Z,30.50
2019-01-24T18:56:37.355Z,31.43
2019-01-24T18:59:05.619Z,29.75
2019-01-24T19:01:33.886Z,27.45
2019-01-24T19:04:02.169Z,38.20
2019-01-24T19:06:30.441Z,37.27
2019-01-24T19:08:58.710Z,30.50
2019-01-24T19:11:26.977Z,32.40
2019-01-24T19:13:55.249Z,34.30
2019-01-24T19:16:23.529Z,37.13
2019-01-24T19:18:51.790Z,32.96
2019-01-24T19:21:20.065Z,38.38
2019-01-24T19:23:48.343Z,38.38
2019-01-24T19:26:16.679Z,32.33
2019-01-24T19:28:44.922Z,33.88
2019-01-24T19:31:32.568Z,27.07
2019-01-24T19:34:00.870Z,29.03
2019-01-24T19:36:29.152Z,33.10
2019-01-24T19:38:57.454Z,32.67
2019-01-24T19:41:45.108Z,30.10
2019-01-24T19:44:16.072Z,34.57
2019-01-24T19:46:44.308Z,28.47
2019-01-24T19:52:13.982Z,25.53
2019-01-24T19:54:42.280Z,29.87
2019-01-24T19:57:10.520Z,32.17
2019-01-24T19:59:39.625Z,30.50
2019-01-24T20:02:07.894Z,33.73
2019-01-24T20:04:38.249Z,36.03
2019-01-24T20:07:06.530Z,26.00
2019-01-24T20:09:34.896Z,32.73
2019-01-24T20:12:03.329Z,40.08
2019-01-24T20:14:31.597Z,27.23
2019-01-24T20:16:59.882Z,32.85
2019-01-24T20:19:47.270Z,32.03
2019-01-24T20:22:36.197Z,39.53
2019-01-24T20:25:39.433Z,32.47
2019-01-24T20:28:07.723Z,30.50
2019-01-24T20:31:17.040Z,31.60
2019-01-24T20:33:45.664Z,30.72
2019-01-24T20:36:13.943Z,32.20
2019-01-24T20:38:42.197Z,33.88
2019-01-24T20:41:10.495Z,28.27
2019-01-24T20:43:38.973Z,29.70
2019-01-24T20:46:07.264Z,32.20
2019-01-24T20:48:35.536Z,32.80
2019-01-24T20:51:03.808Z,30.63
2019-01-24T20:53:32.109Z,28.23
2019-01-24T20:56:00.398Z,28.93
2019-01-24T20:58:28.689Z,29.20
2019-01-24T21:00:56.973Z,26.93
2019-01-24T21:03:25.250Z,29.80
2019-01-24T21:05:53.533Z,35.00
2019-01-24T21:08:23.904Z,31.07
2019-01-24T21:10:52.185Z,33.38
2019-01-24T21:13:20.462Z,32.38
2019-01-24T21:15:48.734Z,31.30
2019-01-24T21:18:17.025Z,30.33
2019-01-24T21:20:45.288Z,35.17
2019-01-24T21:23:13.566Z,34.80
2019-01-24T21:25:41.834Z,33.33
2019-01-24T21:28:10.176Z,29.42
2019-01-24T21:30:38.437Z,28.40
2019-01-24T21:33:46.761Z,34.30
2019-01-24T21:36:15.025Z,31.90
2019-01-24T21:38:43.302Z,32.40
2019-01-24T21:41:11.568Z,35.52
2019-01-24T21:43:40.302Z,27.90
2019-01-24T21:46:08.564Z,31.40
2019-01-24T21:48:36.833Z,28.87
2019-01-24T21:51:11.152Z,30.32
2019-01-24T21:53:35.200Z,31.82
2019-01-24T21:56:03.474Z,28.83
2019-01-24T21:58:31.757Z,29.92
2019-01-24T22:01:00.018Z,34.38
2019-01-24T22:03:28.307Z,30.48
2019-01-24T22:05:56.571Z,29.87
2019-01-24T22:08:25.299Z,30.53
2019-01-24T22:10:54.870Z,33.37
2019-01-24T22:13:23.143Z,35.27
2019-01-24T22:15:51.423Z,27.87
2019-01-24T22:18:19.704Z,36.20
2019-01-24T22:20:47.992Z,29.97
2019-01-24T22:23:16.255Z,31.63
2019-01-24T22:25:44.543Z,34.53
2019-01-24T22:28:12.852Z,26.07
2019-01-24T22:31:15.085Z,31.73
2019-01-24T22:33:43.375Z,26.55
2019-01-24T22:36:11.647Z,29.25
2019-01-24T22:38:39.939Z,23.33
2019-01-24T22:41:08.196Z,31.80
2019-01-24T22:43:36.492Z,32.60
2019-01-24T22:49:12.841Z,30.12
2019-01-24T22:51:41.148Z,29.57
2019-01-24T22:54:09.428Z,32.85
2019-01-24T22:56:37.711Z,27.77
2019-01-24T22:59:05.977Z,34.55
2019-01-24T23:02:14.305Z,29.80
2019-01-24T23:04:42.570Z,33.08
2019-01-24T23:07:10.845Z,32.83
2019-01-24T23:09:44.080Z,30.30
2019-01-24T23:12:09.132Z,28.93
2019-01-24T23:14:37.413Z,30.12
2019-01-24T23:17:05.706Z,32.60
2019-01-24T23:19:33.989Z,32.00
2019-01-24T23:22:02.253Z,27.00
2019-01-24T23:24:30.562Z,30.43
2019-01-24T23:26:58.827Z,29.00
2019-01-24T23:29:27.109Z,35.07
2019-01-24T23:31:55.363Z,30.60
2019-01-24T23:34:23.663Z,28.53
2019-01-24T23:36:51.941Z,31.63
2019-01-24T23:39:20.202Z,29.77
2019-01-24T23:41:48.472Z,30.75
2019-01-24T23:44:16.759Z,30.63
2019-01-24T23:46:45.029Z,35.03
2019-01-24T23:49:13.283Z,27.23
2019-01-24T23:51:41.646Z,28.67
2019-01-24T23:54:09.920Z,31.20
2019-01-24T23:56:38.214Z,35.23
2019-01-24T23:59:06.477Z,31.77
